createdAt,value
2016-05-10T00:00:12.077Z,59.77
2016-05-10T00:01:12.049Z,59.48
2016-05-10T00:02:12.035Z,59.68
2016-05-10T00:03:12.022Z,59.58
2016-05-10T00:04:11.994Z,59.58
2016-05-10T00:05:11.982Z,60.44
2016-05-10T00:06:11.952Z,60.25
2016-05-10T00:07:11.940Z,59.87
2016-05-10T00:08:11.927Z,60.06
2016-05-10T00:09:11.898Z,59.97
2016-05-10T00:10:11.885Z,59.97
2016-05-10T00:11:11.873Z,60.35
2016-05-10T00:12:11.844Z,60.25
2016-05-10T00:13:11.858Z,60.54
2016-05-10T00:14:11.870Z,60.51
2016-05-10T00:15:11.899Z,60.44
2016-05-10T00:16:11.912Z,60.41
2016-05-10T00:17:11.956Z,60.51
2016-05-10T00:18:11.950Z,60.51
2016-05-10T00:19:11.936Z,60.51
2016-05-10T00:20:11.937Z,60.32
2016-05-10T00:21:11.940Z,60.99
2016-05-10T00:22:11.926Z,60.89
2016-05-10T00:23:11.921Z,60.99
2016-05-10T00:24:11.913Z,61.37
2016-05-10T00:25:11.891Z,61.18
2016-05-10T00:26:11.867Z,61.18
2016-05-10T00:27:11.859Z,61.18
2016-05-10T00:28:11.834Z,61.08
2016-05-10T00:29:11.823Z,60.99
2016-05-10T00:30:11.813Z,61.57
2016-05-10T00:31:11.785Z,61.37
2016-05-10T00:32:11.775Z,61.76
2016-05-10T00:33:11.747Z,61.76
2016-05-10T00:34:11.735Z,61.66
2016-05-10T00:35:11.722Z,61.66
2016-05-10T00:36:11.695Z,61.57
2016-05-10T00:37:11.682Z,61.85
2016-05-10T00:38:11.654Z,61.94
2016-05-10T00:39:11.643Z,62.3
2016-05-10T00:40:11.613Z,62.2
2016-05-10T00:41:11.601Z,62.23
2016-05-10T00:42:11.588Z,62.33
2016-05-10T00:43:11.575Z,62.49
2016-05-10T00:44:11.547Z,62.68
2016-05-10T00:45:11.518Z,62.33
2016-05-10T00:46:11.506Z,62.2
2016-05-10T00:47:11.477Z,62.2
2016-05-10T00:48:11.464Z,62.4
2016-05-10T00:49:11.436Z,62.49
2016-05-10T00:50:11.423Z,62.49
2016-05-10T00:51:11.410Z,62.33
2016-05-10T00:52:11.381Z,62.77
2016-05-10T00:53:11.368Z,63.16
2016-05-10T00:54:11.340Z,63.26
2016-05-10T00:55:11.327Z,62.97
2016-05-10T00:56:11.315Z,62.97
2016-05-10T00:57:11.285Z,63.06
2016-05-10T00:58:11.257Z,63.06
2016-05-10T00:59:11.243Z,62.97
2016-05-10T01:00:11.231Z,63.06
2016-05-10T01:01:11.203Z,63.16
2016-05-10T01:02:11.189Z,63.54
2016-05-10T01:03:11.161Z,63.35
2016-05-10T01:04:11.148Z,63.45
2016-05-10T01:05:11.135Z,63.35
2016-05-10T01:06:11.106Z,63.45
2016-05-10T01:07:11.094Z,63.45
2016-05-10T01:08:11.065Z,62.97
2016-05-10T01:09:11.052Z,63.16
2016-05-10T01:10:11.023Z,63.06
2016-05-10T01:11:11.011Z,63.64
2016-05-10T01:12:10.982Z,63.64
2016-05-10T01:13:10.969Z,63.54
2016-05-10T01:14:10.956Z,63.64
2016-05-10T01:15:10.928Z,63.54
2016-05-10T01:16:10.914Z,63.64
2016-05-10T01:17:10.886Z,63.45
2016-05-10T01:18:10.874Z,63.93
2016-05-10T01:19:10.844Z,63.16
2016-05-10T01:20:10.832Z,63.73
2016-05-10T01:21:10.819Z,64.12
2016-05-10T01:22:10.790Z,63.73
2016-05-10T01:23:10.793Z,63.26
2016-05-10T01:24:10.749Z,63.64
2016-05-10T01:25:10.736Z,63.73
2016-05-10T01:26:10.707Z,63.54
2016-05-10T01:27:10.694Z,63.35
2016-05-10T01:28:10.665Z,63.83
2016-05-10T01:29:10.653Z,63.54
2016-05-10T01:30:10.624Z,63.64
2016-05-10T01:31:10.611Z,63.54
2016-05-10T01:32:10.598Z,63.73
2016-05-10T01:33:10.570Z,63.54
2016-05-10T01:34:10.557Z,64.02
2016-05-10T01:35:10.528Z,63.73
2016-05-10T01:36:10.515Z,64.02
2016-05-10T01:37:10.503Z,64.02
2016-05-10T01:38:10.473Z,63.64
2016-05-10T01:39:10.461Z,64.12
2016-05-10T01:40:10.433Z,64.02
2016-05-10T01:41:10.420Z,64.12
2016-05-10T01:42:10.391Z,63.83
2016-05-10T01:43:10.378Z,64.02
2016-05-10T01:44:10.349Z,64.12
2016-05-10T01:45:10.461Z,64.12
2016-05-10T01:46:10.324Z,64.12
2016-05-10T01:47:10.295Z,63.83
2016-05-10T01:48:10.283Z,64.22
2016-05-10T01:49:10.253Z,64.02
2016-05-10T01:50:10.240Z,64.12
2016-05-10T01:51:10.212Z,63.93
2016-05-10T01:52:10.199Z,63.93
2016-05-10T01:53:10.171Z,64.02
2016-05-10T01:54:10.158Z,64.12
2016-05-10T01:55:10.144Z,63.93
2016-05-10T01:56:10.116Z,64.12
2016-05-10T01:57:10.103Z,64.02
2016-05-10T01:58:10.075Z,64.12
2016-05-10T01:59:10.062Z,64.02
2016-05-10T02:00:10.033Z,64.12
2016-05-10T02:01:10.020Z,63.73
2016-05-10T02:02:09.992Z,63.93
2016-05-10T02:03:09.978Z,64.31
2016-05-10T02:04:09.965Z,64.31
2016-05-10T02:05:09.937Z,64.02
2016-05-10T02:06:09.924Z,64.12
2016-05-10T02:07:09.896Z,64.12
2016-05-10T02:08:09.883Z,63.93
2016-05-10T02:09:09.853Z,63.93
2016-05-10T02:10:09.841Z,63.93
2016-05-10T02:11:09.812Z,63.93
2016-05-10T02:12:09.800Z,64.02
2016-05-10T02:13:09.772Z,64.12
2016-05-10T02:14:09.758Z,64.31
2016-05-10T02:15:09.745Z,64.22
2016-05-10T02:16:09.716Z,64.22
2016-05-10T02:17:09.703Z,64.02
2016-05-10T02:18:09.675Z,64.02
2016-05-10T02:19:09.663Z,64.12
2016-05-10T02:20:09.633Z,64.22
2016-05-10T02:21:09.621Z,64.22
2016-05-10T02:22:09.608Z,64.02
2016-05-10T02:23:09.579Z,64.31
2016-05-10T02:24:09.566Z,64.12
2016-05-10T02:25:09.538Z,64.02
2016-05-10T02:26:09.525Z,63.93
2016-05-10T02:27:09.496Z,64.12
2016-05-10T02:28:09.483Z,64.02
2016-05-10T02:29:09.455Z,64.12
2016-05-10T02:30:09.442Z,64.22
2016-05-10T02:31:09.429Z,64.4
2016-05-10T02:32:09.400Z,64.22
2016-05-10T02:33:09.387Z,64.02
2016-05-10T02:34:09.359Z,64.12
2016-05-10T02:35:09.346Z,64.31
2016-05-10T02:36:09.318Z,64.37
2016-05-10T02:37:09.304Z,63.93
2016-05-10T02:38:09.275Z,64.02
2016-05-10T02:39:09.262Z,64.37
2016-05-10T02:40:09.250Z,64.12
2016-05-10T02:41:09.222Z,64.02
2016-05-10T02:42:09.209Z,64.12
2016-05-10T02:43:09.180Z,63.93
2016-05-10T02:44:09.167Z,64.12
2016-05-10T02:45:09.138Z,63.99
2016-05-10T02:46:09.126Z,64.12
2016-05-10T02:47:09.097Z,63.83
2016-05-10T02:48:09.083Z,64.02
2016-05-10T02:49:09.056Z,63.99
2016-05-10T02:50:09.042Z,63.7
2016-05-10T02:51:09.029Z,64.22
2016-05-10T02:52:09.002Z,64.02
2016-05-10T02:53:08.988Z,64.02
2016-05-10T02:54:08.960Z,64.31
2016-05-10T02:55:08.947Z,64.4
2016-05-10T02:56:08.918Z,64.02
2016-05-10T02:57:08.905Z,64.18
2016-05-10T02:58:08.907Z,64.02
2016-05-10T02:59:10.176Z,64.22
2016-05-10T03:00:08.851Z,64.22
2016-05-10T03:01:08.821Z,64.22
2016-05-10T03:02:08.810Z,64.12
2016-05-10T03:03:08.781Z,64.18
2016-05-10T03:04:08.768Z,64.12
2016-05-10T03:05:08.754Z,64.02
2016-05-10T03:06:08.726Z,64.31
2016-05-10T03:07:08.713Z,64.22
2016-05-10T03:08:08.684Z,63.7
2016-05-10T03:09:08.672Z,64.31
2016-05-10T03:10:08.643Z,64.31
2016-05-10T03:11:08.630Z,64.12
2016-05-10T03:12:08.601Z,63.99
2016-05-10T03:13:08.589Z,64.4
2016-05-10T03:14:08.576Z,64.37
2016-05-10T03:15:08.547Z,64.12
2016-05-10T03:16:08.534Z,64.09
2016-05-10T03:17:08.505Z,63.83
2016-05-10T03:18:08.493Z,64.09
2016-05-10T03:19:08.464Z,63.8
2016-05-10T03:20:08.451Z,63.8
2016-05-10T03:21:08.423Z,63.83
2016-05-10T03:22:08.410Z,64.28
2016-05-10T03:23:08.380Z,64.28
2016-05-10T03:24:08.368Z,64.18
2016-05-10T03:25:08.355Z,63.99
2016-05-10T03:26:08.327Z,64.09
2016-05-10T03:27:08.314Z,63.89
2016-05-10T03:28:08.285Z,63.89
2016-05-10T03:29:08.272Z,64.28
2016-05-10T03:30:08.244Z,64.37
2016-05-10T03:31:08.231Z,64.56
2016-05-10T03:32:08.202Z,64.37
2016-05-10T03:33:08.190Z,64.28
2016-05-10T03:34:08.160Z,64.37
2016-05-10T03:35:08.163Z,64.28
2016-05-10T03:36:08.135Z,64.37
2016-05-10T03:37:08.106Z,64.56
2016-05-10T03:38:08.079Z,64.75
2016-05-10T03:39:08.064Z,64.75
2016-05-10T03:40:08.051Z,64.75
2016-05-10T03:41:08.023Z,64.56
2016-05-10T03:42:08.011Z,64.95
2016-05-10T03:43:07.998Z,64.85
2016-05-10T03:44:07.969Z,64.95
2016-05-10T03:45:07.956Z,64.85
2016-05-10T03:46:07.928Z,64.95
2016-05-10T03:47:07.914Z,64.56
2016-05-10T03:48:07.886Z,64.66
2016-05-10T03:49:07.873Z,64.56
2016-05-10T03:50:07.845Z,64.37
2016-05-10T03:51:07.831Z,64.37
2016-05-10T03:52:07.802Z,64.18
2016-05-10T03:53:07.790Z,64.28
2016-05-10T03:54:07.761Z,64.09
2016-05-10T03:55:07.749Z,64.18
2016-05-10T03:56:07.736Z,63.99
2016-05-10T03:57:07.708Z,63.99
2016-05-10T03:58:07.694Z,63.99
2016-05-10T03:59:07.665Z,64.18
2016-05-10T04:00:07.652Z,64.47
2016-05-10T04:01:07.624Z,63.93
2016-05-10T04:02:07.611Z,64.02
2016-05-10T04:03:07.582Z,63.83
2016-05-10T04:04:07.570Z,64.02
2016-05-10T04:05:07.556Z,64.28
2016-05-10T04:06:07.528Z,64.12
2016-05-10T04:07:07.515Z,63.8
2016-05-10T04:08:07.487Z,63.64
2016-05-10T04:09:07.474Z,63.64
2016-05-10T04:10:07.445Z,63.83
2016-05-10T04:11:07.432Z,63.6
2016-05-10T04:12:07.404Z,63.64
2016-05-10T04:13:07.390Z,63.64
2016-05-10T04:14:07.378Z,64.12
2016-05-10T04:15:07.350Z,63.45
2016-05-10T04:16:07.336Z,63.73
2016-05-10T04:17:07.308Z,63.16
2016-05-10T04:18:07.295Z,64.12
2016-05-10T04:19:07.266Z,63.93
2016-05-10T04:20:07.253Z,63.06
2016-05-10T04:21:07.240Z,63.54
2016-05-10T04:22:07.211Z,63.54
2016-05-10T04:23:07.199Z,63.06
2016-05-10T04:24:07.170Z,62.97
2016-05-10T04:25:07.158Z,63.26
2016-05-10T04:26:07.130Z,63.35
2016-05-10T04:27:07.116Z,63.45
2016-05-10T04:28:07.102Z,63.26
2016-05-10T04:29:07.074Z,63.16
2016-05-10T04:30:07.061Z,62.97
2016-05-10T04:31:07.033Z,62.97
2016-05-10T04:32:07.021Z,63.06
2016-05-10T04:33:07.007Z,62.59
2016-05-10T04:34:06.978Z,62.68
2016-05-10T04:35:06.966Z,62.59
2016-05-10T04:36:06.937Z,62.43
2016-05-10T04:37:06.924Z,62.2
2016-05-10T04:38:06.896Z,62.62
2016-05-10T04:39:06.882Z,62.23
2016-05-10T04:40:06.870Z,62.04
2016-05-10T04:41:06.856Z,62.43
2016-05-10T04:42:06.828Z,61.94
2016-05-10T04:43:06.800Z,61.85
2016-05-10T04:44:06.787Z,61.57
2016-05-10T04:45:06.774Z,61.66
2016-05-10T04:46:06.745Z,61.76
2016-05-10T04:47:06.731Z,61.66
2016-05-10T04:48:06.719Z,61.08
2016-05-10T04:49:06.691Z,61.28
2016-05-10T04:50:06.678Z,60.99
2016-05-10T04:51:06.650Z,61.08
2016-05-10T04:52:06.636Z,60.99
2016-05-10T04:53:06.622Z,61.47
2016-05-10T04:54:06.594Z,60.99
2016-05-10T04:55:06.582Z,60.89
2016-05-10T04:56:06.569Z,60.99
2016-05-10T04:57:06.555Z,60.99
2016-05-10T04:58:06.528Z,60.89
2016-05-10T04:59:06.499Z,60.61
2016-05-10T05:00:06.502Z,60.7
2016-05-10T05:01:06.474Z,60.44
2016-05-10T05:02:06.444Z,60.44
2016-05-10T05:03:06.432Z,60.83
2016-05-10T05:04:06.418Z,60.73
2016-05-10T05:05:06.390Z,60.16
2016-05-10T05:06:06.377Z,60.16
2016-05-10T05:07:06.364Z,60.06
2016-05-10T05:08:06.335Z,60.06
2016-05-10T05:09:06.323Z,60.35
2016-05-10T05:10:06.293Z,59.48
2016-05-10T05:11:06.282Z,59.77
2016-05-10T05:12:06.268Z,59.2
2016-05-10T05:13:06.239Z,59.58
2016-05-10T05:14:06.227Z,59.77
2016-05-10T05:15:06.214Z,59.48
2016-05-10T05:16:06.184Z,59.48
2016-05-10T05:17:06.173Z,59.2
2016-05-10T05:18:06.159Z,59.01
2016-05-10T05:19:06.147Z,59.01
2016-05-10T05:20:06.117Z,58.81
2016-05-10T05:21:06.105Z,58.62
2016-05-10T05:22:06.076Z,58.81
2016-05-10T05:23:06.063Z,58.94
2016-05-10T05:24:06.050Z,59.01
2016-05-10T05:25:06.038Z,58.44
2016-05-10T05:26:06.009Z,58.46
2016-05-10T05:27:05.996Z,58.37
2016-05-10T05:28:05.967Z,57.98
2016-05-10T05:29:05.954Z,58.08
2016-05-10T05:30:05.941Z,57.79
2016-05-10T05:31:05.913Z,57.7
2016-05-10T05:32:05.899Z,57.98
2016-05-10T05:33:05.888Z,57.89
2016-05-10T05:34:05.859Z,58.08
2016-05-10T05:35:05.846Z,58.08
2016-05-10T05:36:05.832Z,57.7
2016-05-10T05:37:05.820Z,57.98
2016-05-10T05:38:05.791Z,57.6
2016-05-10T05:39:05.778Z,58.17
2016-05-10T05:40:05.765Z,57.31
2016-05-10T05:41:05.737Z,57.5
2016-05-10T05:42:05.724Z,57.5
2016-05-10T05:43:05.711Z,57.41
2016-05-10T05:44:05.682Z,57.12
2016-05-10T05:45:05.670Z,57.03
2016-05-10T05:46:05.656Z,56.74
2016-05-10T05:47:05.643Z,56.76
2016-05-10T05:48:05.615Z,56.76
2016-05-10T05:49:05.602Z,56.45
2016-05-10T05:50:05.590Z,56.29
2016-05-10T05:51:05.576Z,56.48
2016-05-10T05:52:05.563Z,56.76
2016-05-10T05:53:05.534Z,56.57
2016-05-10T05:54:05.522Z,56.09
2016-05-10T05:55:05.493Z,56.19
2016-05-10T05:56:05.480Z,56.19
2016-05-10T05:57:05.514Z,55.8
2016-05-10T05:58:05.438Z,55.52
2016-05-10T05:59:05.441Z,55.33
2016-05-10T06:00:05.413Z,55.74
2016-05-10T06:01:05.400Z,55.26
2016-05-10T06:02:05.387Z,55.74
2016-05-10T06:03:05.358Z,55.93
2016-05-10T06:04:05.346Z,55.16
2016-05-10T06:05:05.333Z,54.88
2016-05-10T06:06:05.319Z,54.97
2016-05-10T06:07:05.291Z,54.68
2016-05-10T06:08:05.279Z,55.07
2016-05-10T06:09:05.266Z,54.68
2016-05-10T06:10:05.251Z,54.97
2016-05-10T06:11:05.223Z,54.39
2016-05-10T06:12:05.210Z,54.01
2016-05-10T06:13:05.198Z,54.01
2016-05-10T06:14:05.185Z,54.52
2016-05-10T06:15:05.173Z,54.01
2016-05-10T06:16:05.159Z,53.66
2016-05-10T06:17:05.130Z,52.89
2016-05-10T06:18:05.133Z,53.27
2016-05-10T06:19:05.104Z,52.79
2016-05-10T06:20:05.092Z,53.08
2016-05-10T06:21:05.079Z,52.79
2016-05-10T06:22:05.067Z,52.34
2016-05-10T06:23:05.037Z,52.62
2016-05-10T06:24:05.025Z,52.14
2016-05-10T06:25:05.011Z,51.76
2016-05-10T06:26:04.998Z,52.05
2016-05-10T06:27:04.985Z,51.57
2016-05-10T06:28:04.973Z,51.57
2016-05-10T06:29:04.960Z,50.99
2016-05-10T06:30:04.947Z,51.02
2016-05-10T06:31:04.933Z,51.11
2016-05-10T06:32:04.922Z,50.73
2016-05-10T06:33:04.891Z,50.82
2016-05-10T06:34:04.879Z,50.15
2016-05-10T06:35:04.866Z,50.46
2016-05-10T06:36:04.854Z,50.18
2016-05-10T06:37:04.840Z,49.69
2016-05-10T06:38:04.828Z,49.99
2016-05-10T06:39:04.815Z,49.6
2016-05-10T06:40:04.801Z,49.22
2016-05-10T06:41:04.788Z,48.93
2016-05-10T06:42:04.776Z,48.76
2016-05-10T06:43:04.763Z,49.15
2016-05-10T06:44:04.751Z,48.85
2016-05-10T06:45:04.737Z,48.57
2016-05-10T06:46:04.724Z,47.89
2016-05-10T06:47:04.712Z,48.38
2016-05-10T06:48:04.714Z,47.89
2016-05-10T06:49:04.685Z,47.7
2016-05-10T06:50:04.657Z,47.72
2016-05-10T06:51:04.659Z,47.34
2016-05-10T06:52:04.647Z,46.67
2016-05-10T06:53:04.618Z,47.53
2016-05-10T06:54:04.621Z,46.47
2016-05-10T06:55:04.608Z,46.38
2016-05-10T06:56:04.578Z,45.73
2016-05-10T06:57:04.581Z,45.73
2016-05-10T06:58:04.569Z,45.73
2016-05-10T06:59:04.556Z,45.36
2016-05-10T07:00:04.543Z,45.36
2016-05-10T07:01:04.530Z,45.17
2016-05-10T07:02:04.516Z,44.89
2016-05-10T07:03:04.505Z,44.49
2016-05-10T07:04:04.491Z,44.23
2016-05-10T07:05:04.478Z,43.46
2016-05-10T07:06:04.496Z,43.65
2016-05-10T07:07:04.468Z,43.75
2016-05-10T07:08:04.455Z,43.55
2016-05-10T07:09:04.442Z,43.17
2016-05-10T07:10:04.430Z,42.88
2016-05-10T07:11:04.416Z,43.07
2016-05-10T07:12:04.403Z,43.27
2016-05-10T07:13:04.390Z,42.59
2016-05-10T07:14:04.377Z,42.52
2016-05-10T07:15:04.365Z,42.42
2016-05-10T07:16:04.368Z,42.42
2016-05-10T07:17:04.401Z,41.84
2016-05-10T07:18:04.342Z,41.84
2016-05-10T07:19:04.328Z,41.94
2016-05-10T07:20:04.316Z,41.55
2016-05-10T07:21:04.303Z,41.94
2016-05-10T07:22:04.289Z,40.9
2016-05-10T07:23:04.292Z,41.09
2016-05-10T07:24:04.264Z,40.9
2016-05-10T07:25:04.267Z,41.09
2016-05-10T07:26:04.254Z,40.7
2016-05-10T07:27:04.241Z,40.7
2016-05-10T07:28:04.228Z,40.9
2016-05-10T07:29:04.214Z,40.99
2016-05-10T07:30:04.202Z,40.51
2016-05-10T07:31:04.204Z,40.44
2016-05-10T07:32:04.191Z,40.24
2016-05-10T07:33:04.178Z,40.44
2016-05-10T07:34:04.166Z,40.05
2016-05-10T07:35:04.153Z,39.95
2016-05-10T07:36:04.140Z,39.76
2016-05-10T07:37:04.127Z,39.57
2016-05-10T07:38:04.129Z,39.37
2016-05-10T07:39:04.116Z,39.09
2016-05-10T07:40:04.104Z,38.81
2016-05-10T07:41:04.090Z,39.01
2016-05-10T07:42:04.077Z,39.29
2016-05-10T07:43:04.127Z,38.71
2016-05-10T07:44:04.068Z,38.81
2016-05-10T07:45:04.243Z,38.53
2016-05-10T07:46:04.057Z,38.43
2016-05-10T07:47:04.029Z,38.35
2016-05-10T07:48:04.015Z,38.16
2016-05-10T07:49:04.003Z,38.06
2016-05-10T07:50:04.006Z,37.87
2016-05-10T07:51:03.993Z,37.77
2016-05-10T07:52:03.979Z,37.67
2016-05-10T07:53:03.967Z,37
2016-05-10T07:54:03.954Z,37.3
2016-05-10T07:55:03.957Z,37.21
2016-05-10T07:56:03.959Z,37.12
2016-05-10T07:57:03.947Z,37.12
2016-05-10T07:58:03.933Z,37.02
2016-05-10T07:59:03.920Z,36.82
2016-05-10T08:00:04.080Z,36.72
2016-05-10T08:01:03.894Z,36.34
2016-05-10T08:02:03.881Z,36.24
2016-05-10T08:03:03.884Z,36.24
2016-05-10T08:04:03.871Z,36.16
2016-05-10T08:05:03.858Z,36.26
2016-05-10T08:06:03.846Z,35.88
2016-05-10T08:07:03.833Z,35.49
2016-05-10T08:08:03.835Z,35.58
2016-05-10T08:09:03.822Z,35.5
2016-05-10T08:10:03.825Z,35.21
2016-05-10T08:11:03.796Z,34.92
2016-05-10T08:12:03.799Z,35.12
2016-05-10T08:13:03.786Z,35.21
2016-05-10T08:14:03.788Z,34.63
2016-05-10T08:15:03.760Z,34.63
2016-05-10T08:16:03.763Z,34.84
2016-05-10T08:17:03.750Z,34.27
2016-05-10T08:18:03.737Z,33.97
2016-05-10T08:19:03.724Z,33.97
2016-05-10T08:20:03.727Z,33.89
2016-05-10T08:21:03.714Z,34.09
2016-05-10T08:22:03.701Z,34.09
2016-05-10T08:23:03.688Z,33.51
2016-05-10T08:24:03.691Z,33.41
2016-05-10T08:25:03.678Z,33.51
2016-05-10T08:26:03.664Z,33.22
2016-05-10T08:27:03.683Z,33.12
2016-05-10T08:28:03.670Z,32.73
2016-05-10T08:29:03.642Z,32.65
2016-05-10T08:30:04.035Z,32.56
2016-05-10T08:31:03.631Z,32.17
2016-05-10T08:32:03.634Z,32.07
2016-05-10T08:33:03.621Z,32.07
2016-05-10T08:34:03.609Z,31.68
2016-05-10T08:35:03.611Z,31.6
2016-05-10T08:36:03.597Z,31.12
2016-05-10T08:37:03.600Z,31.12
2016-05-10T08:38:03.588Z,30.82
2016-05-10T08:39:03.590Z,30.84
2016-05-10T08:40:03.577Z,30.35
2016-05-10T08:41:03.565Z,30.07
2016-05-10T08:42:03.567Z,29.87
2016-05-10T08:43:03.554Z,29.98
2016-05-10T08:44:03.557Z,29.98
2016-05-10T08:45:03.544Z,29.87
2016-05-10T08:46:03.546Z,29.69
2016-05-10T08:47:03.534Z,29.6
2016-05-10T08:48:03.537Z,29.4
2016-05-10T08:49:03.524Z,29.69
2016-05-10T08:50:03.510Z,29.61
2016-05-10T08:51:03.560Z,29.32
2016-05-10T08:52:03.516Z,28.64
2016-05-10T08:53:03.504Z,28.74
2016-05-10T08:54:03.506Z,28.45
2016-05-10T08:55:03.493Z,28.17
2016-05-10T08:56:03.481Z,27.78
2016-05-10T08:57:03.483Z,27.68
2016-05-10T08:58:03.470Z,27.5
2016-05-10T08:59:03.472Z,27.31
2016-05-10T09:00:03.475Z,27.01
2016-05-10T09:01:03.462Z,26.62
2016-05-10T09:02:03.464Z,26.82
2016-05-10T09:03:03.467Z,27.01
2016-05-10T09:04:03.469Z,26.23
2016-05-10T09:05:03.441Z,26.43
2016-05-10T09:06:03.445Z,25.96
2016-05-10T09:07:03.431Z,25.76
2016-05-10T09:08:03.434Z,25.96
2016-05-10T09:09:03.437Z,25.87
2016-05-10T09:10:03.721Z,26.15
2016-05-10T09:11:03.817Z,26.06
2016-05-10T09:12:05.289Z,26.34
2016-05-10T09:13:03.822Z,26.54
2016-05-10T09:14:03.575Z,26.43
2016-05-10T09:15:03.657Z,26.64
2016-05-10T09:16:03.737Z,26.62
2016-05-10T09:17:03.912Z,26.44
2016-05-10T09:18:03.758Z,26.44
2016-05-10T09:19:03.594Z,26.25
2016-05-10T09:20:03.467Z,25.96
2016-05-10T09:21:03.605Z,25.76
2016-05-10T09:22:03.540Z,25.38
2016-05-10T09:23:03.584Z,25.09
2016-05-10T09:24:03.588Z,24.8
2016-05-10T09:25:03.606Z,24.82
2016-05-10T09:26:03.608Z,24.13
2016-05-10T09:27:03.626Z,24.43
2016-05-10T09:28:03.643Z,24.43
2016-05-10T09:29:03.637Z,24.43
2016-05-10T09:30:03.646Z,24.13
2016-05-10T09:31:03.653Z,23.85
2016-05-10T09:32:03.646Z,23.75
2016-05-10T09:33:03.653Z,23.27
2016-05-10T09:34:03.659Z,23.36
2016-05-10T09:35:03.648Z,23.18
2016-05-10T09:36:03.652Z,23.18
2016-05-10T09:37:03.657Z,23.08
2016-05-10T09:38:03.646Z,22.99
2016-05-10T09:39:03.649Z,22.89
2016-05-10T09:40:03.653Z,22.89
2016-05-10T09:41:03.640Z,22.99
2016-05-10T09:42:03.644Z,22.88
2016-05-10T09:43:03.648Z,22.88
2016-05-10T09:44:03.650Z,22.3
2016-05-10T09:45:03.654Z,22.11
2016-05-10T09:46:03.641Z,22.22
2016-05-10T09:47:03.645Z,22.12
2016-05-10T09:48:03.632Z,21.92
2016-05-10T09:49:03.634Z,21.73
2016-05-10T09:50:03.637Z,21.34
2016-05-10T09:51:03.623Z,21.15
2016-05-10T09:52:03.626Z,21.06
2016-05-10T09:53:03.629Z,20.57
2016-05-10T09:54:03.882Z,20.29
2016-05-10T09:55:03.619Z,20.09
2016-05-10T09:56:03.622Z,20.1
2016-05-10T09:57:03.625Z,19.42
2016-05-10T09:58:03.627Z,19.32
2016-05-10T09:59:03.631Z,19.42
2016-05-10T10:00:03.617Z,19.13
2016-05-10T10:01:03.620Z,18.65
2016-05-10T10:02:03.622Z,18.75
2016-05-10T10:03:03.625Z,18.46
2016-05-10T10:04:03.613Z,18.16
2016-05-10T10:05:03.630Z,18.26
2016-05-10T10:06:03.618Z,17.68
2016-05-10T10:07:03.621Z,17.49
2016-05-10T10:08:03.623Z,17.2
2016-05-10T10:09:03.611Z,16.92
2016-05-10T10:10:03.613Z,17.11
2016-05-10T10:11:03.616Z,16.92
2016-05-10T10:12:03.603Z,17
2016-05-10T10:13:03.637Z,16.61
2016-05-10T10:14:03.640Z,16.62
2016-05-10T10:15:03.610Z,16.52
2016-05-10T10:16:03.629Z,16.71
2016-05-10T10:17:03.616Z,16.61
2016-05-10T10:18:03.603Z,16.61
2016-05-10T10:19:03.637Z,16.61
2016-05-10T10:20:03.608Z,16.52
2016-05-10T10:21:03.596Z,16.41
2016-05-10T10:22:03.598Z,16.61
2016-05-10T10:23:03.601Z,16.9
2016-05-10T10:24:03.603Z,16.51
2016-05-10T10:25:03.591Z,16.61
2016-05-10T10:26:03.593Z,16.6
2016-05-10T10:27:03.596Z,16.31
2016-05-10T10:28:03.599Z,16.31
2016-05-10T10:29:03.586Z,16.41
2016-05-10T10:30:03.589Z,16.31
2016-05-10T10:31:03.591Z,16.21
2016-05-10T10:32:03.594Z,16.31
2016-05-10T10:33:03.581Z,16.41
2016-05-10T10:34:03.583Z,16.31
2016-05-10T10:35:03.571Z,16.39
2016-05-10T10:36:03.574Z,16.69
2016-05-10T10:37:03.576Z,16.78
2016-05-10T10:38:03.563Z,16.58
2016-05-10T10:39:03.566Z,16.69
2016-05-10T10:40:03.568Z,16.68
2016-05-10T10:41:03.556Z,16.58
2016-05-10T10:42:03.558Z,16.49
2016-05-10T10:43:03.561Z,16.69
2016-05-10T10:44:03.549Z,16.78
2016-05-10T10:45:03.551Z,16.2
2016-05-10T10:46:03.538Z,16.1
2016-05-10T10:47:03.541Z,16.3
2016-05-10T10:48:03.527Z,16.3
2016-05-10T10:49:03.529Z,16.2
2016-05-10T10:50:03.533Z,16.39
2016-05-10T10:51:03.521Z,16.1
2016-05-10T10:52:03.523Z,16.1
2016-05-10T10:53:03.526Z,16.2
2016-05-10T10:54:03.512Z,16
2016-05-10T10:55:03.546Z,16
2016-05-10T10:56:03.517Z,16.1
2016-05-10T10:57:03.505Z,16
2016-05-10T10:58:03.508Z,15.42
2016-05-10T10:59:03.495Z,15.04
2016-05-10T11:00:03.498Z,15.14
2016-05-10T11:01:03.484Z,15.33
2016-05-10T11:02:03.487Z,15.23
2016-05-10T11:03:03.490Z,15.33
2016-05-10T11:04:03.478Z,15.32
2016-05-10T11:05:03.480Z,15.33
2016-05-10T11:06:03.467Z,15.14
2016-05-10T11:07:03.469Z,15.12
2016-05-10T11:08:03.472Z,15.22
2016-05-10T11:09:03.474Z,15.32
2016-05-10T11:10:03.461Z,14.94
2016-05-10T11:11:03.464Z,14.84
2016-05-10T11:12:03.452Z,14.93
2016-05-10T11:13:03.454Z,14.45
2016-05-10T11:14:03.441Z,14.75
2016-05-10T11:15:03.444Z,14.36
2016-05-10T11:16:03.446Z,14.16
2016-05-10T11:17:03.449Z,14.16
2016-05-10T11:18:03.437Z,13.77
2016-05-10T11:19:03.440Z,13.57
2016-05-10T11:20:03.426Z,13.18
2016-05-10T11:21:03.429Z,13.29
2016-05-10T11:22:03.432Z,13.19
2016-05-10T11:23:03.435Z,13.09
2016-05-10T11:24:03.421Z,13.19
2016-05-10T11:25:03.424Z,12.99
2016-05-10T11:26:03.412Z,12.8
2016-05-10T11:27:03.414Z,13.18
2016-05-10T11:28:03.401Z,13.09
2016-05-10T11:29:03.404Z,13.38
2016-05-10T11:30:03.390Z,13.18
2016-05-10T11:31:03.393Z,12.99
2016-05-10T11:32:03.395Z,13.17
2016-05-10T11:33:03.383Z,13.37
2016-05-10T11:34:03.385Z,13.09
2016-05-10T11:35:03.388Z,12.7
2016-05-10T11:36:03.375Z,12.9
2016-05-10T11:37:03.378Z,12.8
2016-05-10T11:38:03.380Z,12.6
2016-05-10T11:39:03.368Z,12.6
2016-05-10T11:40:03.371Z,12.8
2016-05-10T11:41:03.358Z,12.7
2016-05-10T11:42:03.361Z,12.51
2016-05-10T11:43:03.347Z,12.41
2016-05-10T11:44:03.349Z,12.61
2016-05-10T11:45:03.353Z,12.31
2016-05-10T11:46:03.341Z,12.51
2016-05-10T11:47:03.343Z,11.93
2016-05-10T11:48:03.346Z,12.12
2016-05-10T11:49:03.332Z,11.73
2016-05-10T11:50:03.335Z,11.73
2016-05-10T11:51:03.338Z,11.93
2016-05-10T11:52:03.324Z,12.31
2016-05-10T11:53:03.327Z,11.82
2016-05-10T11:54:03.330Z,12.21
2016-05-10T11:55:03.317Z,11.92
2016-05-10T11:56:03.320Z,11.82
2016-05-10T11:57:03.307Z,11.72
2016-05-10T11:58:03.309Z,11.63
2016-05-10T11:59:03.312Z,11.52
2016-05-10T12:00:03.409Z,12.01
2016-05-10T12:01:03.302Z,12.01
2016-05-10T12:02:03.289Z,11.62
2016-05-10T12:03:03.307Z,12.11
2016-05-10T12:04:03.294Z,11.72
2016-05-10T12:05:03.297Z,11.72
2016-05-10T12:06:03.284Z,11.52
2016-05-10T12:07:03.287Z,11.72
2016-05-10T12:08:03.274Z,11.43
2016-05-10T12:09:03.277Z,11.72
2016-05-10T12:10:03.264Z,11.43
2016-05-10T12:11:03.267Z,11.43
2016-05-10T12:12:03.269Z,11.43
2016-05-10T12:13:03.256Z,11.53
2016-05-10T12:14:03.259Z,11.33
2016-05-10T12:15:03.261Z,11.43
2016-05-10T12:16:03.249Z,11.43
2016-05-10T12:17:03.252Z,11.43
2016-05-10T12:18:03.238Z,10.94
2016-05-10T12:19:03.241Z,10.94
2016-05-10T12:20:03.244Z,10.94
2016-05-10T12:21:03.231Z,10.84
2016-05-10T12:22:03.234Z,11.04
2016-05-10T12:23:03.221Z,11.13
2016-05-10T12:24:03.239Z,11.13
2016-05-10T12:25:03.227Z,10.64
2016-05-10T12:26:03.213Z,10.64
2016-05-10T12:27:03.215Z,10.74
2016-05-10T12:28:03.204Z,10.84
2016-05-10T12:29:03.206Z,10.55
2016-05-10T12:30:03.193Z,10.55
2016-05-10T12:31:03.196Z,10.35
2016-05-10T12:32:03.197Z,10.25
2016-05-10T12:33:03.201Z,10.35
2016-05-10T12:34:03.188Z,10.35
2016-05-10T12:35:03.175Z,10.25
2016-05-10T12:36:03.178Z,10.25
2016-05-10T12:37:03.181Z,10.35
2016-05-10T12:38:03.167Z,10.25
2016-05-10T12:39:03.170Z,10.25
2016-05-10T12:40:03.157Z,10.16
2016-05-10T12:41:03.160Z,9.96
2016-05-10T12:42:03.147Z,9.96
2016-05-10T12:43:03.150Z,10.16
2016-05-10T12:44:03.152Z,9.77
2016-05-10T12:45:03.796Z,9.67
2016-05-10T12:46:04.079Z,9.86
2016-05-10T12:48:03.116Z,9.57
2016-05-10T12:49:03.119Z,9.38
2016-05-10T12:50:03.121Z,9.38
2016-05-10T12:51:03.140Z,9.28
2016-05-10T12:52:03.111Z,9.48
2016-05-10T12:53:03.099Z,9.38
2016-05-10T12:54:03.101Z,9.28
2016-05-10T12:55:03.087Z,9.28
2016-05-10T12:56:03.107Z,9.38